Terminal Aerodrome Forecast
Issued by NWS

Home | Current Version | Previous Version | Text Only | Print | Product List | Glossary On
Versions: 1 2 3 4 5 6 7 8 9 10 11 12
444
FTUS45 KABQ 161722
TAFLVS
TAF
KLVS 161722Z 1618/1718 20008KT P6SM SKC
     FM161900 19012G20KT P6SM SKC
     FM170100 21009KT P6SM FEW250
     FM170800 35006KT P6SM FEW250=

USA.gov is the U.S. government's official web portal to all federal, state and local government web resources and services.